createdAt,value
2023-03-03T00:00:25.869Z,88.07
2023-03-03T00:01:25.859Z,87.45
2023-03-03T00:03:49.410Z,88.28
2023-03-03T00:04:49.341Z,89.74
2023-03-03T00:05:49.315Z,90.85
2023-03-03T00:06:49.308Z,90.06
2023-03-03T00:07:49.303Z,91.06
2023-03-03T00:08:49.379Z,91.89
2023-03-03T00:09:49.278Z,91.27
2023-03-03T00:10:49.275Z,90.70
2023-03-03T00:11:49.249Z,90.85
2023-03-03T00:12:49.235Z,90.12
2023-03-03T00:13:49.252Z,90.43
2023-03-03T00:14:49.243Z,91.22
2023-03-03T00:15:49.266Z,92.21
2023-03-03T00:16:49.212Z,92.37
2023-03-03T00:17:49.193Z,91.75
2023-03-03T00:18:49.195Z,91.22
2023-03-03T00:19:49.174Z,90.91
2023-03-03T00:20:49.151Z,90.91
2023-03-03T00:21:49.142Z,90.60
2023-03-03T00:22:49.129Z,91.33
2023-03-03T00:23:49.154Z,91.12
2023-03-03T00:24:49.105Z,91.33
2023-03-03T00:25:49.108Z,92.27
2023-03-03T00:26:49.109Z,92.16
2023-03-03T00:27:49.080Z,91.02
2023-03-03T00:28:49.073Z,91.96
2023-03-03T00:29:49.075Z,92.44
2023-03-03T00:30:49.110Z,92.27
2023-03-03T00:31:49.057Z,90.87
2023-03-03T00:32:49.028Z,92.44
2023-03-03T00:33:49.046Z,91.81
2023-03-03T00:34:49.020Z,92.12
2023-03-03T00:35:49.093Z,92.65
2023-03-03T00:36:48.992Z,93.37
2023-03-03T00:37:48.989Z,92.85
2023-03-03T00:38:48.998Z,92.85
2023-03-03T00:39:48.956Z,93.06
2023-03-03T00:40:48.956Z,92.85
2023-03-03T00:41:48.959Z,92.75
2023-03-03T00:42:48.926Z,92.85
2023-03-03T00:43:48.944Z,92.54
2023-03-03T00:44:48.909Z,92.33
2023-03-03T00:45:49.001Z,92.65
2023-03-03T00:46:48.886Z,92.54
2023-03-03T00:47:48.886Z,92.12
2023-03-03T00:48:48.889Z,92.08
2023-03-03T00:49:48.867Z,92.18
2023-03-03T00:50:48.858Z,91.87
2023-03-03T00:51:48.840Z,92.08
2023-03-03T00:52:48.827Z,91.97
2023-03-03T00:53:48.837Z,92.18
2023-03-03T00:54:48.813Z,91.87
2023-03-03T00:55:48.799Z,92.71
2023-03-03T00:56:48.787Z,92.50
2023-03-03T00:57:48.777Z,92.71
2023-03-03T00:58:48.763Z,92.50
2023-03-03T00:59:48.768Z,92.60
2023-03-03T01:00:48.753Z,92.81
2023-03-03T01:01:48.778Z,92.50
2023-03-03T01:02:48.792Z,92.91
2023-03-03T01:03:48.714Z,92.60
2023-03-03T01:04:48.711Z,92.60
2023-03-03T01:05:48.695Z,92.71
2023-03-03T01:06:48.679Z,92.40
2023-03-03T01:07:48.672Z,92.60
2023-03-03T01:08:48.664Z,92.46
2023-03-03T01:09:48.659Z,92.71
2023-03-03T01:10:48.634Z,92.50
2023-03-03T01:11:48.628Z,92.14
2023-03-03T01:12:48.612Z,92.18
2023-03-03T01:13:48.610Z,90.72
2023-03-03T01:14:48.626Z,91.41
2023-03-03T01:15:48.668Z,91.20
2023-03-03T01:16:48.576Z,91.10
2023-03-03T01:17:48.568Z,92.14
2023-03-03T01:18:48.568Z,91.31
2023-03-03T01:19:48.592Z,90.89
2023-03-03T01:20:48.531Z,91.20
2023-03-03T01:21:48.553Z,91.41
2023-03-03T01:22:48.518Z,90.37
2023-03-03T01:23:48.514Z,90.37
2023-03-03T01:24:48.515Z,90.26
2023-03-03T01:25:48.479Z,90.58
2023-03-03T01:26:48.471Z,89.22
2023-03-03T01:27:48.459Z,89.43
2023-03-03T01:28:48.446Z,89.54
2023-03-03T01:29:48.452Z,89.43
2023-03-03T01:30:48.447Z,88.91
2023-03-03T01:31:48.418Z,88.91
2023-03-03T01:32:48.404Z,88.81
2023-03-03T01:33:48.398Z,88.81
2023-03-03T01:34:48.395Z,88.49
2023-03-03T01:35:48.450Z,88.70
2023-03-03T01:36:48.375Z,88.39
2023-03-03T01:37:48.369Z,88.29
2023-03-03T01:38:48.342Z,88.39
2023-03-03T01:39:48.359Z,89.22
2023-03-03T01:40:48.326Z,88.49
2023-03-03T01:41:48.317Z,88.49
2023-03-03T01:42:48.301Z,89.12
2023-03-03T01:43:48.300Z,88.81
2023-03-03T01:44:48.314Z,88.60
2023-03-03T01:45:48.281Z,88.81
2023-03-03T01:46:48.513Z,88.29
2023-03-03T01:47:48.255Z,88.24
2023-03-03T01:48:48.242Z,88.49
2023-03-03T01:49:48.243Z,88.29
2023-03-03T01:50:48.231Z,88.49
2023-03-03T01:51:48.220Z,88.91
2023-03-03T01:52:48.230Z,88.91
2023-03-03T01:53:48.192Z,88.29
2023-03-03T01:54:48.191Z,88.49
2023-03-03T01:55:48.172Z,88.29
2023-03-03T01:56:48.157Z,87.97
2023-03-03T01:57:48.155Z,87.66
2023-03-03T01:58:48.134Z,87.66
2023-03-03T01:59:48.163Z,87.87
2023-03-03T02:00:48.114Z,87.76
2023-03-03T02:01:48.194Z,87.87
2023-03-03T02:02:48.183Z,87.97
2023-03-03T02:03:48.083Z,89.12
2023-03-03T02:04:48.088Z,88.29
2023-03-03T02:05:48.095Z,88.53
2023-03-03T02:06:48.065Z,88.81
2023-03-03T02:07:48.044Z,88.43
2023-03-03T02:08:48.049Z,88.60
2023-03-03T02:09:48.046Z,88.64
2023-03-03T02:10:48.005Z,89.16
2023-03-03T02:11:48.003Z,88.85
2023-03-03T02:12:48.007Z,88.91
2023-03-03T02:13:47.998Z,89.64
2023-03-03T02:14:47.986Z,89.22
2023-03-03T02:15:48.006Z,88.49
2023-03-03T02:16:47.955Z,88.32
2023-03-03T02:17:47.958Z,88.18
2023-03-03T02:18:47.928Z,88.60
2023-03-03T02:19:47.935Z,88.49
2023-03-03T02:20:47.938Z,88.29
2023-03-03T02:21:47.918Z,88.18
2023-03-03T02:22:47.898Z,88.81
2023-03-03T02:23:47.882Z,88.75
2023-03-03T02:24:47.887Z,88.91
2023-03-03T02:25:47.858Z,88.18
2023-03-03T02:26:47.860Z,88.12
2023-03-03T02:27:47.850Z,89.01
2023-03-03T02:28:47.828Z,88.64
2023-03-03T02:29:47.835Z,88.12
2023-03-03T02:30:47.824Z,88.53
2023-03-03T02:31:47.825Z,88.32
2023-03-03T02:32:47.794Z,89.26
2023-03-03T02:33:47.791Z,88.99
2023-03-03T02:34:47.772Z,89.10
2023-03-03T02:35:47.801Z,89.26
2023-03-03T02:36:47.748Z,89.58
2023-03-03T02:37:47.737Z,89.06
2023-03-03T02:38:47.722Z,89.26
2023-03-03T02:39:47.731Z,89.26
2023-03-03T02:40:47.715Z,88.85
2023-03-03T02:41:47.733Z,88.95
2023-03-03T02:42:47.680Z,88.99
2023-03-03T02:43:47.670Z,88.64
2023-03-03T02:44:47.668Z,89.47
2023-03-03T02:45:47.709Z,90.35
2023-03-03T02:46:47.645Z,89.26
2023-03-03T02:47:47.629Z,88.64
2023-03-03T02:48:47.619Z,88.95
2023-03-03T02:49:47.610Z,88.68
2023-03-03T02:50:47.603Z,88.95
2023-03-03T02:51:47.585Z,89.41
2023-03-03T02:52:47.580Z,90.56
2023-03-03T02:53:47.566Z,90.45
2023-03-03T02:54:47.567Z,89.83
2023-03-03T02:55:47.552Z,89.41
2023-03-03T02:56:47.536Z,90.14
2023-03-03T02:57:47.523Z,90.56
2023-03-03T02:58:47.510Z,89.62
2023-03-03T02:59:47.506Z,90.56
2023-03-03T03:00:47.536Z,90.03
2023-03-03T03:01:47.484Z,90.56
2023-03-03T03:02:47.468Z,89.72
2023-03-03T03:03:47.448Z,89.83
2023-03-03T03:04:47.444Z,90.35
2023-03-03T03:05:47.444Z,90.39
2023-03-03T03:06:47.435Z,90.14
2023-03-03T03:07:47.409Z,90.08
2023-03-03T03:08:47.401Z,89.83
2023-03-03T03:09:47.475Z,90.25
2023-03-03T03:10:47.401Z,90.56
2023-03-03T03:11:47.362Z,89.83
2023-03-03T03:12:47.352Z,90.81
2023-03-03T03:13:47.344Z,90.56
2023-03-03T03:14:47.325Z,90.56
2023-03-03T03:15:47.318Z,90.08
2023-03-03T03:16:47.350Z,90.56
2023-03-03T03:17:47.307Z,90.87
2023-03-03T03:18:47.297Z,90.87
2023-03-03T03:19:47.285Z,90.35
2023-03-03T03:20:48.555Z,90.50
2023-03-03T03:21:47.271Z,90.77
2023-03-03T03:22:47.249Z,90.45
2023-03-03T03:23:47.236Z,90.03
2023-03-03T03:24:47.232Z,90.87
2023-03-03T03:25:47.216Z,90.97
2023-03-03T03:26:47.215Z,90.45
2023-03-03T03:27:47.187Z,90.45
2023-03-03T03:28:47.290Z,90.87
2023-03-03T03:29:47.167Z,89.72
2023-03-03T03:30:47.192Z,90.03
2023-03-03T03:31:47.160Z,89.51
2023-03-03T03:32:47.136Z,89.93
2023-03-03T03:33:47.128Z,90.45
2023-03-03T03:34:47.129Z,90.87
2023-03-03T03:35:47.181Z,90.45
2023-03-03T03:36:47.106Z,90.56
2023-03-03T03:37:47.089Z,90.60
2023-03-03T03:38:47.074Z,90.66
2023-03-03T03:39:47.058Z,90.66
2023-03-03T03:40:47.046Z,90.45
2023-03-03T03:41:47.071Z,90.14
2023-03-03T03:42:47.029Z,89.72
2023-03-03T03:43:47.015Z,90.66
2023-03-03T03:44:47.044Z,90.14
2023-03-03T03:45:47.013Z,90.60
2023-03-03T03:46:47.009Z,90.77
2023-03-03T03:47:47.008Z,90.97
2023-03-03T03:48:46.962Z,90.87
2023-03-03T03:49:46.958Z,90.66
2023-03-03T03:50:46.941Z,90.25
2023-03-03T03:51:46.938Z,90.45
2023-03-03T03:52:46.934Z,90.39
2023-03-03T03:53:46.911Z,90.81
2023-03-03T03:54:46.906Z,90.35
2023-03-03T03:55:46.888Z,89.93
2023-03-03T03:56:46.901Z,90.08
2023-03-03T03:57:46.870Z,90.28
2023-03-03T03:58:46.864Z,90.28
2023-03-03T03:59:46.852Z,90.25
2023-03-03T04:00:46.852Z,90.39
2023-03-03T04:01:46.844Z,90.60
2023-03-03T04:02:46.901Z,90.25
2023-03-03T04:03:46.816Z,90.39
2023-03-03T04:04:46.811Z,90.03
2023-03-03T04:05:46.793Z,90.50
2023-03-03T04:06:46.808Z,90.77
2023-03-03T04:07:46.764Z,90.39
2023-03-03T04:08:46.762Z,90.56
2023-03-03T04:09:46.750Z,90.28
2023-03-03T04:10:46.742Z,90.50
2023-03-03T04:11:46.738Z,90.50
2023-03-03T04:12:46.719Z,90.56
2023-03-03T04:13:46.706Z,90.35
2023-03-03T04:14:46.701Z,90.91
2023-03-03T04:15:46.740Z,90.50
2023-03-03T04:16:46.688Z,90.50
2023-03-03T04:17:46.669Z,91.02
2023-03-03T04:18:46.862Z,90.28
2023-03-03T04:19:46.660Z,90.77
2023-03-03T04:20:46.634Z,90.66
2023-03-03T04:21:46.633Z,90.91
2023-03-03T04:22:46.624Z,90.45
2023-03-03T04:23:46.630Z,90.66
2023-03-03T04:24:46.589Z,90.50
2023-03-03T04:25:46.594Z,90.81
2023-03-03T04:26:46.594Z,90.39
2023-03-03T04:27:46.563Z,91.12
2023-03-03T04:28:46.563Z,90.03
2023-03-03T04:29:46.557Z,90.50
2023-03-03T04:30:46.612Z,90.28
2023-03-03T04:31:46.538Z,90.70
2023-03-03T04:32:46.532Z,90.28
2023-03-03T04:33:46.501Z,90.70
2023-03-03T04:34:52.962Z,90.81
2023-03-03T04:35:47.554Z,91.33
2023-03-03T04:36:46.490Z,90.64
2023-03-03T04:37:46.460Z,91.02
2023-03-03T04:38:46.452Z,91.47
2023-03-03T04:39:46.442Z,91.27
2023-03-03T04:40:46.429Z,92.31
2023-03-03T04:41:46.430Z,91.47
2023-03-03T04:42:46.404Z,90.95
2023-03-03T04:43:46.404Z,91.69
2023-03-03T04:44:46.387Z,91.06
2023-03-03T04:45:46.372Z,91.27
2023-03-03T04:46:46.380Z,91.27
2023-03-03T04:47:46.353Z,91.37
2023-03-03T04:48:46.350Z,90.85
2023-03-03T04:49:46.348Z,91.47
2023-03-03T04:50:46.329Z,92.41
2023-03-03T04:51:46.327Z,91.89
2023-03-03T04:52:46.304Z,92.31
2023-03-03T04:53:46.290Z,91.79
2023-03-03T04:54:46.275Z,91.79
2023-03-03T04:55:46.280Z,91.06
2023-03-03T04:56:46.279Z,91.27
2023-03-03T04:57:46.282Z,91.62
2023-03-03T04:58:46.249Z,91.37
2023-03-03T04:59:46.234Z,91.79
2023-03-03T05:00:46.217Z,91.69
2023-03-03T05:01:46.315Z,91.00
2023-03-03T05:02:46.197Z,92.00
2023-03-03T05:03:46.187Z,91.47
2023-03-03T05:04:46.245Z,91.37
2023-03-03T05:05:46.165Z,91.00
2023-03-03T05:06:46.181Z,91.20
2023-03-03T05:07:46.140Z,91.41
2023-03-03T05:08:46.126Z,92.04
2023-03-03T05:09:46.139Z,91.41
2023-03-03T05:10:46.139Z,91.47
2023-03-03T05:11:46.119Z,91.47
2023-03-03T05:12:46.086Z,91.37
2023-03-03T05:13:46.079Z,91.41
2023-03-03T05:14:46.067Z,91.06
2023-03-03T05:15:46.125Z,90.78
2023-03-03T05:16:46.093Z,91.41
2023-03-03T05:17:46.060Z,91.47
2023-03-03T05:18:46.942Z,91.52
2023-03-03T05:19:46.012Z,91.41
2023-03-03T05:20:46.010Z,91.69
2023-03-03T05:21:46.070Z,90.89
2023-03-03T05:22:45.993Z,91.41
2023-03-03T05:23:45.974Z,91.27
2023-03-03T05:24:45.961Z,91.41
2023-03-03T05:25:45.949Z,91.41
2023-03-03T05:26:45.977Z,91.72
2023-03-03T05:27:45.930Z,90.95
2023-03-03T05:28:45.923Z,91.31
2023-03-03T05:29:45.904Z,90.47
2023-03-03T05:30:45.896Z,91.10
2023-03-03T05:31:45.984Z,91.41
2023-03-03T05:32:45.873Z,91.10
2023-03-03T05:33:45.864Z,91.06
2023-03-03T05:34:45.850Z,91.10
2023-03-03T05:35:45.905Z,91.20
2023-03-03T05:36:45.850Z,90.85
2023-03-03T05:37:45.823Z,90.64
2023-03-03T05:38:45.820Z,90.68
2023-03-03T05:39:45.817Z,90.75
2023-03-03T05:40:45.794Z,90.95
2023-03-03T05:41:45.788Z,90.58
2023-03-03T05:42:45.869Z,90.75
2023-03-03T05:43:45.783Z,90.75
2023-03-03T05:44:45.746Z,90.22
2023-03-03T05:45:45.741Z,90.95
2023-03-03T05:46:45.798Z,90.53
2023-03-03T05:47:45.735Z,90.33
2023-03-03T05:48:45.710Z,90.64
2023-03-03T05:49:45.703Z,90.12
2023-03-03T05:50:45.690Z,90.64
2023-03-03T05:51:45.689Z,89.91
2023-03-03T05:52:45.686Z,89.97
2023-03-03T05:53:45.661Z,89.97
2023-03-03T05:54:45.646Z,89.97
2023-03-03T05:55:45.647Z,90.50
2023-03-03T05:56:45.632Z,90.43
2023-03-03T05:57:45.641Z,90.18
2023-03-03T05:58:45.617Z,90.53
2023-03-03T05:59:45.604Z,90.64
2023-03-03T06:00:45.682Z,90.64
2023-03-03T06:01:52.546Z,90.12
2023-03-03T06:02:45.621Z,89.18
2023-03-03T06:03:45.557Z,89.39
2023-03-03T06:04:45.545Z,90.12
2023-03-03T06:05:45.581Z,89.81
2023-03-03T06:06:45.576Z,89.70
2023-03-03T06:07:50.532Z,89.59
2023-03-03T06:08:45.543Z,89.81
2023-03-03T06:09:45.504Z,89.59
2023-03-03T06:10:45.495Z,90.53
2023-03-03T06:11:45.478Z,90.01
2023-03-03T06:12:45.541Z,89.87
2023-03-03T06:13:45.471Z,89.81
2023-03-03T06:14:45.459Z,89.91
2023-03-03T06:15:45.478Z,90.53
2023-03-03T06:16:45.465Z,90.43
2023-03-03T06:17:45.435Z,89.59
2023-03-03T06:18:45.403Z,90.12
2023-03-03T06:19:48.018Z,90.12
2023-03-03T06:20:45.379Z,90.53
2023-03-03T06:21:45.386Z,89.39
2023-03-03T06:22:45.374Z,88.97
2023-03-03T06:23:45.360Z,88.76
2023-03-03T06:24:45.339Z,89.59
2023-03-03T06:25:45.331Z,89.28
2023-03-03T06:26:45.330Z,88.65
2023-03-03T06:27:45.330Z,88.97
2023-03-03T06:28:45.365Z,89.28
2023-03-03T06:29:45.295Z,89.07
2023-03-03T06:30:45.276Z,89.07
2023-03-03T06:31:45.294Z,89.70
2023-03-03T06:32:45.346Z,89.49
2023-03-03T06:33:45.257Z,89.39
2023-03-03T06:34:45.356Z,88.97
2023-03-03T06:35:45.257Z,88.97
2023-03-03T06:36:45.223Z,88.76
2023-03-03T06:37:45.217Z,88.93
2023-03-03T06:38:45.199Z,88.41
2023-03-03T06:39:45.191Z,88.51
2023-03-03T06:40:45.174Z,88.34
2023-03-03T06:41:45.165Z,89.39
2023-03-03T06:42:45.190Z,88.45
2023-03-03T06:43:45.171Z,88.97
2023-03-03T06:44:45.151Z,88.65
2023-03-03T06:45:45.131Z,88.76
2023-03-03T06:46:45.112Z,88.76
2023-03-03T06:47:45.115Z,88.34
2023-03-03T06:48:45.090Z,88.45
2023-03-03T06:49:45.108Z,88.82
2023-03-03T06:50:45.069Z,88.76
2023-03-03T06:51:45.057Z,88.20
2023-03-03T06:52:45.066Z,88.62
2023-03-03T06:53:45.041Z,88.82
2023-03-03T06:54:45.021Z,88.82
2023-03-03T06:55:45.168Z,88.41
2023-03-03T06:56:45.025Z,88.09
2023-03-03T06:57:45.009Z,87.78
2023-03-03T06:58:44.986Z,88.30
2023-03-03T06:59:44.973Z,87.78
2023-03-03T07:00:44.994Z,87.57
2023-03-03T07:01:44.957Z,87.78
2023-03-03T07:02:44.954Z,87.88
2023-03-03T07:03:44.940Z,87.88
2023-03-03T07:04:44.923Z,87.37
2023-03-03T07:05:44.918Z,87.99
2023-03-03T07:06:44.912Z,87.53
2023-03-03T07:07:44.947Z,87.68
2023-03-03T07:08:44.884Z,87.88
2023-03-03T07:09:44.870Z,87.47
2023-03-03T07:10:44.867Z,87.53
2023-03-03T07:11:46.576Z,87.95
2023-03-03T07:12:44.851Z,87.43
2023-03-03T07:13:44.863Z,87.37
2023-03-03T07:14:45.543Z,87.32
2023-03-03T07:15:44.821Z,87.68
2023-03-03T07:16:44.818Z,88.30
2023-03-03T07:17:44.806Z,88.20
2023-03-03T07:18:44.807Z,87.88
2023-03-03T07:19:44.771Z,87.53
2023-03-03T07:20:44.770Z,87.68
2023-03-03T07:22:05.799Z,87.88
2023-03-03T07:22:44.758Z,87.32
2023-03-03T07:23:44.746Z,87.22
2023-03-03T07:24:44.744Z,87.43
2023-03-03T07:25:44.726Z,87.26
2023-03-03T07:26:44.710Z,87.63
2023-03-03T07:27:44.712Z,86.91
2023-03-03T07:28:44.714Z,87.63
2023-03-03T07:29:44.683Z,87.12
2023-03-03T07:30:44.687Z,86.66
2023-03-03T07:31:45.695Z,86.69
2023-03-03T07:32:44.666Z,86.28
2023-03-03T07:33:44.636Z,85.97
2023-03-03T07:34:44.628Z,86.18
2023-03-03T07:35:44.665Z,85.76
2023-03-03T07:36:44.624Z,86.28
2023-03-03T07:37:44.609Z,86.59
2023-03-03T07:38:44.588Z,86.03
2023-03-03T07:39:44.574Z,86.38
2023-03-03T07:40:51.553Z,86.45
2023-03-03T07:41:44.560Z,86.49
2023-03-03T07:42:44.567Z,86.35
2023-03-03T07:43:44.566Z,85.99
2023-03-03T07:44:44.560Z,86.55
2023-03-03T07:45:44.541Z,85.99
2023-03-03T07:46:44.507Z,86.41
2023-03-03T07:47:44.519Z,85.68
2023-03-03T07:48:44.491Z,85.68
2023-03-03T07:49:44.468Z,85.05
2023-03-03T07:50:44.475Z,85.16
2023-03-03T07:51:44.456Z,84.95
2023-03-03T07:52:44.448Z,84.78
2023-03-03T07:53:44.454Z,85.47
2023-03-03T07:54:44.420Z,85.78
2023-03-03T07:55:44.416Z,85.47
2023-03-03T07:56:44.395Z,85.26
2023-03-03T07:57:44.386Z,84.95
2023-03-03T07:58:44.405Z,84.95
2023-03-03T07:59:44.360Z,85.26
2023-03-03T08:00:44.380Z,84.81
2023-03-03T08:01:44.452Z,85.22
2023-03-03T08:02:44.335Z,84.64
2023-03-03T08:03:44.336Z,84.70
2023-03-03T08:04:44.412Z,84.53
2023-03-03T08:05:44.297Z,84.74
2023-03-03T08:06:44.292Z,85.05
2023-03-03T08:07:44.278Z,85.16
2023-03-03T08:08:44.439Z,85.26
2023-03-03T08:09:44.260Z,85.36
2023-03-03T08:10:44.301Z,85.36
2023-03-03T08:11:44.260Z,85.47
2023-03-03T08:12:44.226Z,85.47
2023-03-03T08:13:44.218Z,84.95
2023-03-03T08:14:44.208Z,84.84
2023-03-03T08:15:44.296Z,85.36
2023-03-03T08:16:44.176Z,85.47
2023-03-03T08:17:44.163Z,85.36
2023-03-03T08:18:44.167Z,85.68
2023-03-03T08:19:44.135Z,85.05
2023-03-03T08:20:44.128Z,85.36
2023-03-03T08:21:44.118Z,85.36
2023-03-03T08:22:44.106Z,85.78
2023-03-03T08:23:44.097Z,85.26
2023-03-03T08:24:44.081Z,85.68
2023-03-03T08:25:44.156Z,85.36
2023-03-03T08:26:44.072Z,84.95
2023-03-03T08:27:44.072Z,84.43
2023-03-03T08:28:44.077Z,84.84
2023-03-03T08:29:44.026Z,84.95
2023-03-03T08:30:44.111Z,84.60
2023-03-03T08:31:44.066Z,84.84
2023-03-03T08:32:44.077Z,84.39
2023-03-03T08:33:44.016Z,84.33
2023-03-03T08:34:43.969Z,84.43
2023-03-03T08:35:43.999Z,84.64
2023-03-03T08:36:43.982Z,84.81
2023-03-03T08:37:43.952Z,85.05
2023-03-03T08:38:43.968Z,84.91
2023-03-03T08:39:43.915Z,84.91
2023-03-03T08:40:44.260Z,84.70
2023-03-03T08:41:43.953Z,84.81
2023-03-03T08:42:43.883Z,84.91
2023-03-03T08:43:43.893Z,84.28
2023-03-03T08:44:43.862Z,83.97
2023-03-03T08:45:43.883Z,83.94
2023-03-03T08:46:44.015Z,84.45
2023-03-03T08:47:43.833Z,84.04
2023-03-03T08:48:43.832Z,83.83
2023-03-03T08:49:43.831Z,83.73
2023-03-03T08:50:43.805Z,83.62
2023-03-03T08:51:43.786Z,83.76
2023-03-03T08:52:43.805Z,83.83
2023-03-03T08:53:43.797Z,83.83
2023-03-03T08:54:43.763Z,83.73
2023-03-03T08:55:43.749Z,83.80
2023-03-03T08:56:43.727Z,83.42
2023-03-03T08:57:43.724Z,83.73
2023-03-03T08:58:59.624Z,83.52
2023-03-03T08:59:44.705Z,83.58
2023-03-03T09:00:43.698Z,82.79
2023-03-03T09:01:43.713Z,83.17
2023-03-03T09:02:43.714Z,83.17
2023-03-03T09:03:43.662Z,82.96
2023-03-03T09:04:43.730Z,83.27
2023-03-03T09:05:43.750Z,82.58
2023-03-03T09:06:43.655Z,82.75
2023-03-03T09:07:43.627Z,83.10
2023-03-03T09:08:43.600Z,83.10
2023-03-03T09:09:43.620Z,83.20
2023-03-03T09:10:43.582Z,83.00
2023-03-03T09:11:43.615Z,82.89
2023-03-03T09:12:43.564Z,83.04
2023-03-03T09:13:43.563Z,83.62
2023-03-03T09:14:43.554Z,83.52
2023-03-03T09:15:43.630Z,83.83
2023-03-03T09:16:43.530Z,83.00
2023-03-03T09:17:43.524Z,83.20
2023-03-03T09:18:43.521Z,83.00
2023-03-03T09:19:43.517Z,83.58
2023-03-03T09:20:43.480Z,83.37
2023-03-03T09:21:44.173Z,83.17
2023-03-03T09:22:58.600Z,83.37
2023-03-03T09:23:43.451Z,83.31
2023-03-03T09:24:43.473Z,83.06
2023-03-03T09:25:43.487Z,83.20
2023-03-03T09:28:16.320Z,83.00
2023-03-03T09:29:16.423Z,83.20
2023-03-03T09:30:16.324Z,82.96
2023-03-03T09:31:16.336Z,83.06
2023-03-03T09:32:16.332Z,82.51
2023-03-03T09:33:27.510Z,82.30
2023-03-03T09:34:17.291Z,81.92
2023-03-03T09:35:16.276Z,81.88
2023-03-03T09:36:16.253Z,81.88
2023-03-03T09:37:16.935Z,81.77
2023-03-03T09:38:16.392Z,81.36
2023-03-03T09:39:16.298Z,81.57
2023-03-03T09:40:16.237Z,81.74
2023-03-03T09:41:16.225Z,81.32
2023-03-03T09:42:16.196Z,81.22
2023-03-03T09:43:18.300Z,81.12
2023-03-03T09:44:16.202Z,81.29
2023-03-03T09:45:16.170Z,80.35
2023-03-03T09:46:16.221Z,80.77
2023-03-03T09:47:16.177Z,80.00
2023-03-03T09:48:16.158Z,78.86
2023-03-03T09:49:16.150Z,79.17
2023-03-03T09:50:16.107Z,78.86
2023-03-03T09:51:16.123Z,78.65
2023-03-03T09:52:16.941Z,78.55
2023-03-03T09:53:16.128Z,79.48
2023-03-03T09:54:16.085Z,79.83
2023-03-03T09:55:16.111Z,79.48
2023-03-03T09:56:16.051Z,78.86
2023-03-03T09:57:16.038Z,79.17
2023-03-03T09:58:16.033Z,78.65
2023-03-03T09:59:16.050Z,78.96
2023-03-03T10:00:16.030Z,78.55
2023-03-03T10:01:15.998Z,79.17
2023-03-03T10:02:16.015Z,79.17
2023-03-03T10:03:16.018Z,78.58
2023-03-03T10:04:15.990Z,78.75
2023-03-03T10:05:16.000Z,79.69
2023-03-03T10:06:16.005Z,78.89
2023-03-03T10:07:16.022Z,79.38
2023-03-03T10:08:15.988Z,78.55
2023-03-03T10:09:15.946Z,78.96
2023-03-03T10:10:15.970Z,78.96
2023-03-03T10:11:15.999Z,78.23
2023-03-03T10:12:17.800Z,78.86
2023-03-03T10:13:15.876Z,78.65
2023-03-03T10:14:15.956Z,78.96
2023-03-03T10:15:15.889Z,78.65
2023-03-03T10:16:15.870Z,78.41
2023-03-03T10:17:15.911Z,78.30
2023-03-03T10:18:15.914Z,78.51
2023-03-03T10:19:15.944Z,78.27
2023-03-03T10:20:15.869Z,78.30
2023-03-03T10:21:15.787Z,77.95
2023-03-03T10:22:15.820Z,77.54
2023-03-03T10:23:15.763Z,77.23
2023-03-03T10:24:15.777Z,77.64
2023-03-03T10:25:15.819Z,76.29
2023-03-03T10:26:15.732Z,76.29
2023-03-03T10:27:15.733Z,76.26
2023-03-03T10:28:15.702Z,76.37
2023-03-03T10:29:22.125Z,75.95
2023-03-03T10:30:17.565Z,76.26
2023-03-03T10:31:18.194Z,76.47
2023-03-03T10:32:16.532Z,76.64
2023-03-03T10:33:15.899Z,76.81
2023-03-03T10:34:15.707Z,76.19
2023-03-03T10:35:15.961Z,75.05
2023-03-03T10:36:15.712Z,74.95
2023-03-03T10:37:15.608Z,74.84
2023-03-03T10:38:15.606Z,73.60
2023-03-03T10:39:15.629Z,74.53
2023-03-03T10:40:15.683Z,75.05
2023-03-03T10:41:15.588Z,74.50
2023-03-03T10:42:15.651Z,74.60
2023-03-03T10:43:29.698Z,73.57
2023-03-03T10:44:16.528Z,74.08
2023-03-03T10:45:15.533Z,74.40
2023-03-03T10:46:15.647Z,73.36
2023-03-03T10:47:15.521Z,73.46
2023-03-03T10:48:15.484Z,73.05
2023-03-03T10:49:15.485Z,72.63
2023-03-03T10:50:15.486Z,73.25
2023-03-03T10:51:15.461Z,72.94
2023-03-03T10:52:15.461Z,72.29
2023-03-03T10:53:15.468Z,71.88
2023-03-03T10:54:15.423Z,72.01
2023-03-03T10:55:15.452Z,72.91
2023-03-03T10:56:15.428Z,71.56
2023-03-03T10:57:15.419Z,71.04
2023-03-03T10:58:15.409Z,71.80
2023-03-03T10:59:15.384Z,72.11
2023-03-03T11:00:15.437Z,72.01
2023-03-03T11:01:15.404Z,72.29
2023-03-03T11:02:15.342Z,72.50
2023-03-03T11:03:15.330Z,72.08
2023-03-03T11:04:15.373Z,71.84
2023-03-03T11:05:15.328Z,70.60
2023-03-03T11:06:15.304Z,70.50
2023-03-03T11:07:15.287Z,71.29
2023-03-03T11:08:15.338Z,70.29
2023-03-03T11:09:15.276Z,70.98
2023-03-03T11:10:15.316Z,70.36
2023-03-03T11:11:15.241Z,70.87
2023-03-03T11:12:15.244Z,70.87
2023-03-03T11:13:15.245Z,70.32
2023-03-03T11:14:15.206Z,69.26
2023-03-03T11:15:15.223Z,69.67
2023-03-03T11:16:15.254Z,69.57
2023-03-03T11:17:15.183Z,68.33
2023-03-03T11:18:15.177Z,69.06
2023-03-03T11:19:15.158Z,69.47
2023-03-03T11:20:15.148Z,67.43
2023-03-03T11:21:15.181Z,68.36
2023-03-03T11:22:15.125Z,69.12
2023-03-03T11:23:15.121Z,69.81
2023-03-03T11:24:15.109Z,70.19
2023-03-03T11:25:15.106Z,69.85
2023-03-03T11:26:15.127Z,69.61
2023-03-03T11:27:15.079Z,69.65
2023-03-03T11:28:15.064Z,68.17
2023-03-03T11:29:15.081Z,67.11
2023-03-03T11:30:15.056Z,65.98
2023-03-03T11:31:15.117Z,65.71
2023-03-03T11:32:15.103Z,63.54
2023-03-03T11:33:15.075Z,63.10
2023-03-03T11:34:15.004Z,66.51
2023-03-03T11:35:14.999Z,63.85
2023-03-03T11:36:14.990Z,62.10
2023-03-03T11:37:14.976Z,57.53
2023-03-03T11:38:14.990Z,57.76
2023-03-03T11:39:15.036Z,57.07
2023-03-03T11:40:15.373Z,56.87
2023-03-03T11:41:14.948Z,59.03
2023-03-03T11:42:14.948Z,58.75
2023-03-03T11:43:26.283Z,60.31
2023-03-03T11:44:15.920Z,60.65
2023-03-03T11:45:14.893Z,59.96
2023-03-03T11:46:14.947Z,60.19
2023-03-03T11:47:14.869Z,61.05
2023-03-03T11:48:14.866Z,63.03
2023-03-03T11:49:14.844Z,61.87
2023-03-03T11:50:14.832Z,60.56
2023-03-03T11:51:14.838Z,62.44
2023-03-03T11:52:14.825Z,64.02
2023-03-03T11:53:14.811Z,62.08
2023-03-03T11:54:14.805Z,62.19
2023-03-03T11:55:14.776Z,63.74
2023-03-03T11:56:14.781Z,64.84
2023-03-03T11:57:14.761Z,62.26
2023-03-03T11:58:14.760Z,62.62
2023-03-03T11:59:14.738Z,63.24
2023-03-03T12:00:14.722Z,62.77
2023-03-03T12:01:14.733Z,60.03
2023-03-03T12:02:14.777Z,61.14
2023-03-03T12:03:14.683Z,60.63
2023-03-03T12:04:14.674Z,59.16
2023-03-03T12:05:14.706Z,59.91
2023-03-03T12:06:14.775Z,59.67
2023-03-03T12:07:18.926Z,58.34
2023-03-03T12:08:14.681Z,57.75
2023-03-03T12:09:14.785Z,58.03
2023-03-03T12:10:14.613Z,59.80
2023-03-03T12:11:14.648Z,59.31
2023-03-03T12:12:14.592Z,59.11
2023-03-03T12:13:14.673Z,59.55
2023-03-03T12:14:14.591Z,61.94
2023-03-03T12:15:14.558Z,60.27
2023-03-03T12:16:14.591Z,60.61
2023-03-03T12:17:14.538Z,60.43
2023-03-03T12:18:14.570Z,61.22
2023-03-03T12:19:14.549Z,61.22
2023-03-03T12:20:14.517Z,61.63
2023-03-03T12:21:14.526Z,60.37
2023-03-03T12:22:14.511Z,60.27
2023-03-03T12:23:14.516Z,60.58
2023-03-03T12:24:14.492Z,60.06
2023-03-03T12:25:14.528Z,61.40
2023-03-03T12:26:14.499Z,60.60
2023-03-03T12:27:14.520Z,58.72
2023-03-03T12:28:14.474Z,57.72
2023-03-03T12:29:14.437Z,58.05
2023-03-03T12:30:14.424Z,56.64
2023-03-03T12:31:14.467Z,55.71
2023-03-03T12:32:14.468Z,52.72
2023-03-03T12:33:14.401Z,52.17
2023-03-03T12:34:14.408Z,51.99
2023-03-03T12:35:14.387Z,48.96
2023-03-03T12:36:14.441Z,48.07
2023-03-03T12:37:14.387Z,49.25
2023-03-03T12:38:14.360Z,47.67
2023-03-03T12:39:17.704Z,46.52
2023-03-03T12:40:15.424Z,47.89
2023-03-03T12:41:14.325Z,49.19
2023-03-03T12:42:14.408Z,47.99
2023-03-03T12:43:14.294Z,49.42
2023-03-03T12:44:14.313Z,48.66
2023-03-03T12:45:14.268Z,46.40
2023-03-03T12:46:14.323Z,48.08
2023-03-03T12:47:14.305Z,45.95
2023-03-03T12:48:14.248Z,44.93
2023-03-03T12:49:14.254Z,45.14
2023-03-03T12:50:14.252Z,45.07
2023-03-03T12:51:14.246Z,46.26
2023-03-03T12:52:14.256Z,48.44
2023-03-03T12:53:14.208Z,49.92
2023-03-03T12:54:14.196Z,50.15
2023-03-03T12:55:14.164Z,50.68